Time;durP1;ratioP1;P1;durP2;ratioP2;P2;SDS_P1;SDS_P2;PMS_P1;PMS_P2;Temp;Humidity;BMP_temperature;BMP_pressure;BME280_temperature;BME280_humidity;BME280_pressure;Samples;Min_cycle;Max_cycle;Signal;HPM_P1;HPM_P2
2022/07/10 00:02:11;;;;;;;;;;;;;;;15.71;87.08;98736.84;4747705;30;20318;-84
2022/07/10 00:04:42;;;;;;;;;;;;;;;15.79;86.11;98728.06;4739905;30;20386;-85
2022/07/10 00:07:11;;;;;;;;;;;;;;;15.89;85.42;98735.34;4737528;30;20379;-87
2022/07/10 00:09:40;;;;;;;;;;;;;;;15.92;84.60;98738.28;4722980;30;20378;-87
2022/07/10 00:12:08;;;;;;;;;;;;;;;15.93;84.61;98734.50;4738071;30;20283;-87
2022/07/10 00:14:36;;;;;;;;;;;;;;;15.92;84.61;98726.59;4723854;30;20347;-87
2022/07/10 00:17:07;;;;;;;;;;;;;;;15.93;84.47;98739.94;4736980;30;19922;-82
2022/07/10 00:24:00;;;;;;;;;;;;;;;15.90;85.09;98732.34;4737340;30;20050;-86
2022/07/10 00:26:31;;;;;;;;;;;;;;;15.92;85.12;98721.16;4719942;30;19927;-84
2022/07/10 00:28:59;;;;;;;;;;;;;;;15.95;85.12;98732.31;4735703;30;20319;-86
2022/07/10 00:31:32;;;;;;;;;;;;;;;15.97;85.02;98735.53;4735826;30;20366;-84
2022/07/10 00:34:06;;;;;;;;;;;;;;;15.99;85.13;98730.59;4736911;30;20397;-83
2022/07/10 00:36:39;;;;;;;;;;;;;;;15.99;85.30;98719.72;4736579;30;20433;-84
2022/07/10 00:43:50;;;;;;;;;;;;;;;16.06;84.71;98721.31;4736325;30;20388;-82
2022/07/10 00:46:20;;;;;;;;;;;;;;;16.12;83.96;98714.72;4736832;30;20374;-84
2022/07/10 00:48:49;;;;;;;;;;;;;;;16.15;83.10;98719.56;4721914;30;20420;-83
2022/07/10 00:51:23;;;;;;;;;;;;;;;16.12;83.37;98715.50;4736190;30;20409;-83
2022/07/10 00:53:59;;;;;;;;;;;;;;;16.08;83.64;98714.47;4736211;30;19930;-85
2022/07/10 00:56:27;;;;;;;;;;;;;;;16.08;83.92;98721.81;4741707;30;20371;-86
2022/07/10 00:58:59;;;;;;;;;;;;;;;16.07;84.22;98717.47;4743655;30;20396;-84
2022/07/10 01:01:30;;;;;;;;;;;;;;;16.06;84.33;98715.88;4743621;30;19922;-84
2022/07/10 01:04:01;;;;;;;;;;;;;;;16.02;84.56;98708.25;4741718;30;20286;-83
2022/07/10 01:06:29;;;;;;;;;;;;;;;16.01;84.59;98700.41;4735168;30;20371;-84
2022/07/10 01:08:57;;;;;;;;;;;;;;;16.01;84.47;98709.38;4736807;30;20363;-84
2022/07/10 01:11:25;;;;;;;;;;;;;;;16.01;84.52;98722.16;4736014;30;20383;-83
2022/07/10 01:14:01;;;;;;;;;;;;;;;16.00;84.41;98729.53;4736407;30;20567;-85
2022/07/10 01:16:42;;;;;;;;;;;;;;;16.02;84.13;98726.50;4721020;30;19984;-85
2022/07/10 01:23:35;;;;;;;;;;;;;;;16.14;81.62;98685.28;4735905;30;19924;-84
2022/07/10 01:26:06;;;;;;;;;;;;;;;16.22;81.27;98687.38;4734368;30;20311;-85
2022/07/10 01:33:01;;;;;;;;;;;;;;;16.28;81.11;98680.78;4750413;30;19925;-86
2022/07/10 01:35:29;;;;;;;;;;;;;;;16.27;80.95;98697.41;4753612;30;20271;-85
2022/07/10 01:42:28;;;;;;;;;;;;;;;16.18;80.75;98686.31;4752964;30;20391;-85
2022/07/10 01:44:58;;;;;;;;;;;;;;;16.15;80.64;98686.91;4752782;30;19929;-85
2022/07/10 01:51:56;;;;;;;;;;;;;;;16.03;80.65;98685.41;4753171;30;19925;-84
2022/07/10 01:54:24;;;;;;;;;;;;;;;15.99;80.74;98691.69;4752266;30;20363;-84
2022/07/10 01:56:52;;;;;;;;;;;;;;;15.96;80.93;98686.84;4753460;30;20363;-83
2022/07/10 02:06:36;;;;;;;;;;;;;;;16.16;81.18;98699.44;4753106;30;20362;-84
2022/07/10 02:13:24;;;;;;;;;;;;;;;16.44;80.04;98712.19;4756157;30;20006;-85
2022/07/10 02:16:12;;;;;;;;;;;;;;;16.54;79.94;98708.53;4730495;30;19930;-83
2022/07/10 02:23:06;;;;;;;;;;;;;;;16.82;79.45;98714.22;4752486;30;19925;-85
2022/07/10 02:25:36;;;;;;;;;;;;;;;16.96;79.38;98709.63;4752721;30;20330;-85
2022/07/10 02:28:04;;;;;;;;;;;;;;;17.08;79.04;98709.22;4752516;30;20421;-85
2022/07/10 02:30:38;;;;;;;;;;;;;;;17.19;78.69;98715.31;4751423;30;20358;-85
2022/07/10 02:33:09;;;;;;;;;;;;;;;17.27;78.72;98725.59;4752301;30;20381;-84
2022/07/10 02:35:42;;;;;;;;;;;;;;;17.30;78.82;98725.00;4752570;30;20378;-83
2022/07/10 02:38:19;;;;;;;;;;;;;;;17.35;78.54;98721.38;4752492;30;19964;-85
2022/07/10 02:40:58;;;;;;;;;;;;;;;17.26;78.60;98715.78;4737142;30;19929;-85
2022/07/10 02:43:31;;;;;;;;;;;;;;;17.20;78.90;98715.03;4753009;30;20367;-84
2022/07/10 02:46:03;;;;;;;;;;;;;;;17.22;79.57;98714.75;4752375;30;20370;-84
2022/07/10 02:52:52;;;;;;;;;;;;;;;17.18;79.70;98709.06;4755975;30;19934;-85
2022/07/10 02:55:21;;;;;;;;;;;;;;;17.18;79.34;98714.53;4755834;30;20015;-84
2022/07/10 02:57:52;;;;;;;;;;;;;;;17.19;79.55;98710.72;4755976;30;20393;-85
2022/07/10 03:00:23;;;;;;;;;;;;;;;17.21;79.61;98705.75;4756002;30;20632;-85
2022/07/10 03:02:56;;;;;;;;;;;;;;;17.24;79.33;98709.78;4755722;30;20367;-84
2022/07/10 03:05:24;;;;;;;;;;;;;;;17.24;79.22;98704.34;4725509;30;20445;-85
2022/07/10 03:12:21;;;;;;;;;;;;;;;17.19;79.39;98713.44;4755780;30;19924;-85
2022/07/10 03:14:53;;;;;;;;;;;;;;;17.15;79.70;98723.28;4754658;30;20355;-85
2022/07/10 03:17:23;;;;;;;;;;;;;;;17.18;79.78;98724.63;4755588;30;20407;-84
2022/07/10 03:19:58;;;;;;;;;;;;;;;17.20;79.80;98720.50;4754249;30;19932;-86
2022/07/10 03:22:28;;;;;;;;;;;;;;;17.22;79.45;98722.94;4739793;30;20374;-86
2022/07/10 03:25:00;;;;;;;;;;;;;;;17.21;79.60;98724.84;4740458;30;20319;-85
2022/07/10 03:31:57;;;;;;;;;;;;;;;17.30;79.01;98728.53;4755611;30;19924;-84
2022/07/10 03:34:25;;;;;;;;;;;;;;;17.32;78.75;98728.25;4757118;30;20343;-85
2022/07/10 03:36:58;;;;;;;;;;;;;;;17.36;78.30;98721.06;4757716;30;19932;-84
2022/07/10 03:39:27;;;;;;;;;;;;;;;17.39;78.18;98716.94;4755915;30;20374;-84
2022/07/10 03:41:59;;;;;;;;;;;;;;;17.42;78.05;98713.63;4740206;30;20520;-84
2022/07/10 03:44:31;;;;;;;;;;;;;;;17.45;77.92;98689.31;4755372;30;20397;-84
2022/07/10 03:47:08;;;;;;;;;;;;;;;17.49;76.66;98676.66;4755851;30;20359;-83
2022/07/10 03:49:38;;;;;;;;;;;;;;;17.60;76.11;98666.41;4740290;30;20344;-84
2022/07/10 03:52:09;;;;;;;;;;;;;;;17.70;75.75;98666.25;4755094;30;20433;-85
2022/07/10 03:54:37;;;;;;;;;;;;;;;17.73;76.18;98659.38;4755618;30;20366;-83
2022/07/10 03:59:55;;;;;;;;;;;;;;;17.69;76.90;98644.69;4755384;30;20366;-84
2022/07/10 04:02:23;;;;;;;;;;;;;;;17.66;76.97;98642.56;4754529;30;20387;-86
2022/07/10 04:04:51;;;;;;;;;;;;;;;17.67;76.94;98645.00;4754605;30;20397;-85
2022/07/10 04:07:22;;;;;;;;;;;;;;;17.64;77.46;98633.88;4739630;30;20366;-86
2022/07/10 04:09:54;;;;;;;;;;;;;;;17.59;77.89;98637.50;4738998;30;20362;-87
2022/07/10 04:12:25;;;;;;;;;;;;;;;17.61;77.88;98643.47;4754761;30;20426;-87
2022/07/10 04:14:59;;;;;;;;;;;;;;;17.66;77.60;98650.75;4739484;30;20293;-86
2022/07/10 04:17:28;;;;;;;;;;;;;;;17.73;77.21;98649.25;4755213;30;20358;-86
2022/07/10 04:19:56;;;;;;;;;;;;;;;17.83;76.76;98640.13;4754766;30;19922;-84
2022/07/10 04:22:27;;;;;;;;;;;;;;;18.02;76.30;98645.47;4754571;30;20402;-86
2022/07/10 04:24:57;;;;;;;;;;;;;;;18.32;75.45;98654.19;4754819;30;20375;-86
2022/07/10 04:27:26;;;;;;;;;;;;;;;18.60;74.59;98649.50;4754591;30;20428;-84
2022/07/10 04:30:00;;;;;;;;;;;;;;;18.67;73.77;98649.13;4754377;30;19929;-86
2022/07/10 04:32:31;;;;;;;;;;;;;;;18.73;73.45;98642.41;4754711;30;19922;-85
2022/07/10 04:35:01;;;;;;;;;;;;;;;18.80;73.38;98640.91;4739088;30;20374;-84
2022/07/10 04:37:34;;;;;;;;;;;;;;;18.86;73.09;98641.59;4739250;30;20370;-84
2022/07/10 04:40:05;;;;;;;;;;;;;;;19.04;72.15;98646.13;4753845;30;20317;-85
2022/07/10 04:42:50;;;;;;;;;;;;;;;19.19;71.81;98644.13;4753260;30;20358;-85
2022/07/10 04:45:23;;;;;;;;;;;;;;;19.26;71.64;98649.97;4724551;30;20293;-85
2022/07/10 04:47:51;;;;;;;;;;;;;;;19.25;71.67;98645.63;4754218;30;20413;-85
2022/07/10 04:50:26;;;;;;;;;;;;;;;19.30;71.71;98645.50;4754164;30;20363;-85
2022/07/10 04:52:57;;;;;;;;;;;;;;;19.30;71.91;98656.44;4753475;30;20279;-84
2022/07/10 04:55:30;;;;;;;;;;;;;;;19.26;71.99;98650.78;4754000;30;20335;-84
2022/07/10 04:57:59;;;;;;;;;;;;;;;19.24;72.17;98636.63;4754365;30;20359;-85
2022/07/10 05:00:29;;;;;;;;;;;;;;;19.20;72.44;98641.09;4755995;30;20437;-87
2022/07/10 05:02:57;;;;;;;;;;;;;;;19.22;72.68;98632.59;4755410;30;20378;-85
2022/07/10 05:05:28;;;;;;;;;;;;;;;19.19;72.56;98627.72;4754932;30;20369;-84
2022/07/10 05:12:29;;;;;;;;;;;;;;;19.43;72.37;98624.66;4754067;30;20373;-88
2022/07/10 05:15:03;;;;;;;;;;;;;;;19.53;72.24;98623.63;4738573;30;19930;-86
2022/07/10 05:17:39;;;;;;;;;;;;;;;19.73;71.93;98627.78;4752807;30;20393;-86
2022/07/10 05:20:12;;;;;;;;;;;;;;;19.80;71.63;98634.44;4738202;30;20366;-86
2022/07/10 05:22:42;;;;;;;;;;;;;;;19.88;71.56;98630.13;4738467;30;20370;-82
2022/07/10 05:25:10;;;;;;;;;;;;;;;20.00;71.46;98627.56;4708818;30;20370;-81
2022/07/10 05:32:28;;;;;;;;;;;;;;;20.89;69.44;98627.50;4753344;30;19976;-88
2022/07/10 05:35:02;;;;;;;;;;;;;;;21.04;68.83;98635.28;4753471;30;19922;-91
2022/07/10 05:37:30;;;;;;;;;;;;;;;21.21;68.70;98631.69;4751607;30;20256;-86
2022/07/10 05:39:59;;;;;;;;;;;;;;;21.37;68.16;98627.34;4752147;30;20389;-86
2022/07/10 05:42:29;;;;;;;;;;;;;;;21.56;67.50;98628.94;4752686;30;20411;-87
2022/07/10 05:44:57;;;;;;;;;;;;;;;21.71;66.50;98624.88;4752962;30;20402;-85
2022/07/10 05:47:29;;;;;;;;;;;;;;;21.88;66.08;98629.50;4752814;30;20386;-86
2022/07/10 05:50:01;;;;;;;;;;;;;;;21.92;65.88;98630.44;4752990;30;20363;-86
2022/07/10 05:56:54;;;;;;;;;;;;;;;22.17;64.75;98628.75;4753233;30;19925;-85
2022/07/10 05:59:22;;;;;;;;;;;;;;;22.23;64.65;98624.69;4737433;30;20402;-87
2022/07/10 06:01:51;;;;;;;;;;;;;;;22.39;64.75;98623.00;4753196;30;20462;-88
2022/07/10 06:04:23;;;;;;;;;;;;;;;22.67;63.56;98622.50;4722341;30;20432;-87
2022/07/10 06:06:54;;;;;;;;;;;;;;;22.83;63.34;98626.28;4753073;30;19922;-87
2022/07/10 06:13:49;;;;;;;;;;;;;;;22.97;62.31;98631.56;4752644;30;19934;-84
2022/07/10 06:16:17;;;;;;;;;;;;;;;23.03;62.76;98634.91;4736624;30;20398;-85
2022/07/10 06:23:06;;;;;;;;;;;;;;;23.34;61.88;98629.75;4752549;30;20057;-84
2022/07/10 06:25:34;;;;;;;;;;;;;;;23.50;61.55;98629.94;4736119;30;20327;-86
2022/07/10 06:28:03;;;;;;;;;;;;;;;23.60;61.68;98625.97;4723312;30;20325;-87
2022/07/10 06:30:32;;;;;;;;;;;;;;;23.65;61.26;98627.69;4736788;30;20428;-87
2022/07/10 06:33:03;;;;;;;;;;;;;;;23.68;61.08;98633.31;4721983;30;20276;-84
2022/07/10 06:35:34;;;;;;;;;;;;;;;23.74;60.89;98618.22;4736691;30;19957;-83
2022/07/10 06:42:27;;;;;;;;;;;;;;;23.77;60.15;98644.28;4752490;30;19925;-84
2022/07/10 06:44:59;;;;;;;;;;;;;;;23.53;60.00;98648.53;4737915;30;20355;-85
2022/07/10 06:51:54;;;;;;;;;;;;;;;23.68;59.09;98655.38;4758166;30;20099;-87
2022/07/10 06:54:30;;;;;;;;;;;;;;;23.85;59.11;98656.34;4756849;30;20378;-89
2022/07/10 06:57:01;;;;;;;;;;;;;;;24.05;58.89;98658.22;4739881;30;20386;-84
2022/07/10 07:03:56;;;;;;;;;;;;;;;24.80;57.84;98655.16;4752999;30;19947;-88
2022/07/10 07:06:24;;;;;;;;;;;;;;;25.02;57.11;98662.13;4723145;30;20374;-88
2022/07/10 07:13:19;;;;;;;;;;;;;;;25.11;57.07;98656.44;4768887;30;19975;-92
2022/07/10 07:15:58;;;;;;;;;;;;;;;24.74;55.27;98661.22;4731019;30;20378;-92
2022/07/10 07:23:09;;;;;;;;;;;;;;;24.46;55.76;98659.22;4761583;30;19977;-89
2022/07/10 07:25:47;;;;;;;;;;;;;;;24.66;55.83;98662.97;4748667;30;19954;-90
2022/07/10 07:32:41;;;;;;;;;;;;;;;24.91;55.37;98658.22;4756310;30;19944;-89
2022/07/10 07:35:33;;;;;;;;;;;;;;;24.76;55.62;98662.50;4723344;30;20425;-92
2022/07/10 07:38:06;;;;;;;;;;;;;;;24.44;56.40;98653.19;4758140;30;19922;-89
2022/07/10 07:40:37;;;;;;;;;;;;;;;24.32;57.28;98653.19;4725597;30;20286;-88
2022/07/10 07:43:05;;;;;;;;;;;;;;;24.33;56.95;98652.88;4740578;30;20323;-89
2022/07/10 07:45:37;;;;;;;;;;;;;;;24.46;56.77;98650.13;4741341;30;20346;-90
2022/07/10 07:48:08;;;;;;;;;;;;;;;24.63;56.13;98636.88;4726720;30;20303;-89
2022/07/10 07:50:40;;;;;;;;;;;;;;;24.73;55.66;98643.09;4741575;30;20382;-93
2022/07/10 07:53:11;;;;;;;;;;;;;;;24.85;55.39;98643.88;4742654;30;20337;-93
2022/07/10 07:55:46;;;;;;;;;;;;;;;25.06;55.17;98651.97;4713020;30;20361;-92
2022/07/10 07:58:15;;;;;;;;;;;;;;;25.38;53.79;98648.56;4741407;30;20262;-88
2022/07/10 08:00:42;;;;;;;;;;;;;;;25.51;53.52;98641.84;4757177;30;20354;-92
2022/07/10 08:03:11;;;;;;;;;;;;;;;25.62;53.31;98636.59;4726153;30;19922;-92
2022/07/10 08:05:39;;;;;;;;;;;;;;;25.72;52.51;98634.13;4740685;30;19960;-87
2022/07/10 08:12:32;;;;;;;;;;;;;;;25.77;50.85;98638.59;4755211;30;20337;-91
2022/07/10 08:15:02;;;;;;;;;;;;;;;25.86;50.17;98642.03;4724725;30;20398;-90
2022/07/10 08:17:30;;;;;;;;;;;;;;;25.94;50.59;98643.81;4739087;30;19922;-89
2022/07/10 08:20:02;;;;;;;;;;;;;;;26.05;49.83;98641.31;4755460;30;20363;-88
2022/07/10 08:22:31;;;;;;;;;;;;;;;25.79;49.71;98644.56;4724732;30;20366;-91
2022/07/10 08:25:03;;;;;;;;;;;;;;;25.82;49.25;98632.78;4739487;30;20442;-89
2022/07/10 08:27:35;;;;;;;;;;;;;;;26.19;48.76;98626.25;4725241;30;20294;-92
2022/07/10 08:30:35;;;;;;;;;;;;;;;26.61;47.50;98634.78;4725396;30;19929;-86
2022/07/10 08:33:10;;;;;;;;;;;;;;;27.15;46.41;98639.53;4755864;30;20374;-86
2022/07/10 08:35:49;;;;;;;;;;;;;;;27.64;45.86;98638.94;4742823;30;20378;-92
2022/07/10 08:42:54;;;;;;;;;;;;;;;28.72;43.94;98638.81;4754358;30;20334;-88
2022/07/10 08:45:35;;;;;;;;;;;;;;;28.77;43.94;98634.91;4724602;30;19922;-89
2022/07/10 08:48:10;;;;;;;;;;;;;;;28.63;44.21;98634.69;4738048;30;20289;-88
2022/07/10 08:50:44;;;;;;;;;;;;;;;28.44;44.09;98630.88;4753149;30;20389;-88
2022/07/10 08:53:19;;;;;;;;;;;;;;;28.41;44.34;98628.81;4755055;30;20370;-89
2022/07/10 08:55:53;;;;;;;;;;;;;;;28.47;44.31;98621.78;4754422;30;20435;-87
2022/07/10 09:02:49;;;;;;;;;;;;;;;28.37;44.52;98618.81;4756182;30;20025;-87
2022/07/10 09:05:30;;;;;;;;;;;;;;;28.61;44.29;98618.44;4738756;30;20358;-88
2022/07/10 09:12:26;;;;;;;;;;;;;;;28.07;44.49;98609.22;4754368;30;19925;-87
2022/07/10 09:15:06;;;;;;;;;;;;;;;27.80;44.80;98602.00;4738771;30;20365;-88
2022/07/10 09:22:07;;;;;;;;;;;;;;;28.56;44.85;98601.28;4738090;30;20385;-88
2022/07/10 09:24:38;;;;;;;;;;;;;;;28.93;43.79;98607.75;4737646;30;20366;-89
2022/07/10 09:27:07;;;;;;;;;;;;;;;29.46;42.06;98600.47;4738556;30;19922;-89
2022/07/10 09:29:50;;;;;;;;;;;;;;;30.43;39.80;98596.59;4754777;30;20394;-91
2022/07/10 09:32:18;;;;;;;;;;;;;;;31.06;37.78;98591.81;4738016;30;19922;-89
2022/07/10 09:34:47;;;;;;;;;;;;;;;31.33;36.71;98594.31;4754378;30;20405;-90
2022/07/10 09:37:32;;;;;;;;;;;;;;;31.29;36.20;98588.69;4725677;30;20349;-89
2022/07/10 09:40:03;;;;;;;;;;;;;;;31.76;36.57;98584.06;4753455;30;20277;-90
2022/07/10 09:42:32;;;;;;;;;;;;;;;32.05;35.59;98581.31;4754155;30;20437;-90
2022/07/10 09:45:16;;;;;;;;;;;;;;;32.29;34.72;98586.06;4753009;30;20375;-89
2022/07/10 09:47:58;;;;;;;;;;;;;;;32.69;34.56;98577.63;4723771;30;20364;-85
2022/07/10 09:50:27;;;;;;;;;;;;;;;32.24;34.06;98580.91;4755798;30;20354;-86
2022/07/10 09:53:02;;;;;;;;;;;;;;;31.91;34.39;98571.72;4724880;30;20275;-90
2022/07/10 09:55:31;;;;;;;;;;;;;;;32.19;34.35;98567.34;4754327;30;20377;-90
2022/07/10 10:02:26;;;;;;;;;;;;;;;32.73;34.83;98568.03;4753800;30;20419;-92
2022/07/10 10:04:54;;;;;;;;;;;;;;;33.11;34.29;98559.16;4753006;30;20409;-95
2022/07/10 10:07:26;;;;;;;;;;;;;;;33.19;33.44;98564.28;4738066;30;19929;-90
2022/07/10 10:14:12;;;;;;;;;;;;;;;33.74;31.14;98579.56;4752717;30;19968;-90
2022/07/10 10:16:41;;;;;;;;;;;;;;;34.00;29.86;98569.75;4738874;30;20355;-89
2022/07/10 10:22:20;;;;;;;;;;;;;;;33.91;30.18;98563.06;4753766;30;20389;-89
2022/07/10 10:24:50;;;;;;;;;;;;;;;33.89;30.75;98566.28;4737608;30;20374;-92
2022/07/10 10:27:22;;;;;;;;;;;;;;;33.96;29.93;98557.03;4709827;30;20338;-92
2022/07/10 10:29:51;;;;;;;;;;;;;;;34.17;30.46;98561.66;4737000;30;19922;-91
2022/07/10 10:32:24;;;;;;;;;;;;;;;34.52;29.91;98555.69;4736410;30;20263;-91
2022/07/10 10:34:57;;;;;;;;;;;;;;;34.61;29.84;98551.63;4737263;30;20278;-91
2022/07/10 10:37:44;;;;;;;;;;;;;;;34.61;29.81;98549.63;4753342;30;19922;-92
2022/07/10 10:40:31;;;;;;;;;;;;;;;34.48;30.53;98552.13;4753397;30;20439;-88
2022/07/10 10:43:17;;;;;;;;;;;;;;;34.33;30.44;98563.91;4708809;30;20391;-90
2022/07/10 10:45:47;;;;;;;;;;;;;;;33.93;30.41;98563.44;4752195;30;19926;-91
2022/07/10 10:52:47;;;;;;;;;;;;;;;34.35;29.03;98556.69;4755799;30;20017;-91
2022/07/10 10:55:15;;;;;;;;;;;;;;;34.70;28.58;98551.94;4752708;30;20367;-87
2022/07/10 10:57:51;;;;;;;;;;;;;;;35.06;28.56;98551.50;4752256;30;20393;-92
2022/07/10 11:00:37;;;;;;;;;;;;;;;35.48;28.06;98552.94;4753720;30;20359;-92
2022/07/10 11:03:23;;;;;;;;;;;;;;;35.81;27.71;98556.88;4722680;30;20428;-87
2022/07/10 11:06:02;;;;;;;;;;;;;;;36.01;27.63;98551.31;4752674;30;19934;-89
2022/07/10 11:13:10;;;;;;;;;;;;;;;37.14;27.03;98567.72;4755938;30;19925;-87
2022/07/10 11:15:43;;;;;;;;;;;;;;;37.25;25.93;98566.25;4741270;30;19971;-93
2022/07/10 11:23:06;;;;;;;;;;;;;;;36.38;26.98;98549.47;4757243;30;20417;-94
2022/07/10 11:25:41;;;;;;;;;;;;;;;36.45;26.81;98549.34;4756934;30;20028;-93
2022/07/10 11:32:37;;;;;;;;;;;;;;;37.17;26.73;98553.59;4755840;30;19967;-91
2022/07/10 11:35:12;;;;;;;;;;;;;;;37.42;26.44;98558.63;4755250;30;20428;-91
2022/07/10 11:37:51;;;;;;;;;;;;;;;37.69;25.89;98540.75;4724926;30;19993;-90
2022/07/10 11:40:19;;;;;;;;;;;;;;;37.46;26.04;98552.94;4753558;30;20350;-88
2022/07/10 11:42:59;;;;;;;;;;;;;;;37.49;26.28;98544.41;4754433;30;20366;-88
2022/07/10 11:45:28;;;;;;;;;;;;;;;37.80;25.83;98540.50;4754910;30;20311;-89
2022/07/10 11:52:21;;;;;;;;;;;;;;;37.27;26.46;98544.13;4754856;30;19924;-86
2022/07/10 11:54:56;;;;;;;;;;;;;;;35.98;27.61;98551.38;4725589;30;20361;-88
2022/07/10 11:57:41;;;;;;;;;;;;;;;36.26;27.85;98550.13;4724732;30;20385;-88
2022/07/10 12:00:31;;;;;;;;;;;;;;;37.19;26.68;98547.50;4725610;30;20355;-87
2022/07/10 12:03:36;;;;;;;;;;;;;;;37.34;25.97;98536.72;4749224;30;19928;-87
2022/07/10 12:14:33;;;;;;;;;;;;;;;39.08;24.38;98529.84;4640968;30;19934;-88
2022/07/10 12:18:08;;;;;;;;;;;;;;;39.71;24.41;98509.31;4641109;30;20030;-87
2022/07/10 12:24:31;;;;;;;;;;;;;;;39.05;24.07;98506.13;4642866;30;20333;-87
2022/07/10 12:27:13;;;;;;;;;;;;;;;39.18;23.36;98508.97;4608544;30;20346;-87
2022/07/10 12:30:42;;;;;;;;;;;;;;;38.25;24.17;98503.94;4648809;30;19969;-86
2022/07/10 12:38:29;;;;;;;;;;;;;;;38.94;22.69;98488.72;4614493;30;20030;-86
2022/07/10 12:41:12;;;;;;;;;;;;;;;38.98;22.96;98481.75;4600900;31;20397;-87
2022/07/10 12:44:35;;;;;;;;;;;;;;;38.57;23.34;98474.88;4616321;31;20418;-87
2022/07/10 12:47:17;;;;;;;;;;;;;;;36.95;24.71;98496.97;4643012;30;20389;-87
2022/07/10 12:50:33;;;;;;;;;;;;;;;36.84;25.22;98494.41;4648505;30;20242;-88
2022/07/10 12:53:38;;;;;;;;;;;;;;;37.55;24.70;98498.88;4645945;30;20404;-88
2022/07/10 12:56:38;;;;;;;;;;;;;;;37.61;24.71;98497.13;4648408;30;20454;-87
2022/07/10 13:07:34;;;;;;;;;;;;;;;34.94;27.49;98463.97;4631291;31;20405;-86
2022/07/10 13:10:17;;;;;;;;;;;;;;;35.48;27.19;98462.38;4614282;31;20420;-88
2022/07/10 13:13:19;;;;;;;;;;;;;;;36.22;26.68;98454.69;4601439;31;20461;-86
2022/07/10 13:16:38;;;;;;;;;;;;;;;35.93;26.81;98456.41;4631637;30;19956;-89
2022/07/10 13:23:35;;;;;;;;;;;;;;;34.17;29.40;98466.47;4654819;30;19926;-88
2022/07/10 13:26:29;;;;;;;;;;;;;;;33.09;30.67;98467.31;4656637;30;20456;-89
2022/07/10 13:33:40;;;;;;;;;;;;;;;31.34;32.69;98459.28;4701556;30;19925;-88
2022/07/10 13:57:43;;;;;;;;;;;;;;;29.07;38.43;98479.41;4665239;30;20023;-89
2022/07/10 14:01:37;;;;;;;;;;;;;;;28.73;39.15;98484.13;4656187;30;20427;-90
2022/07/10 14:05:04;;;;;;;;;;;;;;;28.49;39.34;98507.63;4664252;30;19931;-89
2022/07/10 14:12:17;;;;;;;;;;;;;;;28.27;40.13;98517.59;4663874;30;20420;-88
2022/07/10 14:14:59;;;;;;;;;;;;;;;28.18;40.29;98520.66;4669664;30;20324;-88
2022/07/10 14:17:32;;;;;;;;;;;;;;;28.15;40.50;98556.66;4671109;30;20378;-88
2022/07/10 14:20:10;;;;;;;;;;;;;;;27.91;41.30;98650.16;4643482;30;20313;-86
2022/07/10 14:22:45;;;;;;;;;;;;;;;25.64;49.96;98731.78;4655647;30;20288;-85
2022/07/10 14:25:47;;;;;;;;;;;;;;;22.34;61.61;98738.66;4673038;30;20327;-85
2022/07/10 14:33:02;;;;;;;;;;;;;;;19.38;73.56;98840.97;4708484;30;20368;-87
2022/07/10 14:35:55;;;;;;;;;;;;;;;19.15;77.30;98823.66;4739351;30;20355;-90
2022/07/10 14:39:24;;;;;;;;;;;;;;;18.75;78.82;98839.72;4694370;30;19962;-86
2022/07/10 14:43:19;;;;;;;;;;;;;;;18.51;77.88;98842.59;4648137;30;20021;-88
2022/07/10 14:47:22;;;;;;;;;;;;;;;18.38;78.97;98883.28;4601168;31;20432;-88
2022/07/10 14:54:50;;;;;;;;;;;;;;;17.12;75.92;98770.25;4601841;31;20472;-85
2022/07/10 14:57:50;;;;;;;;;;;;;;;17.24;77.94;98762.44;4592504;31;20334;-86
2022/07/10 15:00:42;;;;;;;;;;;;;;;17.43;79.10;98737.06;4594598;31;20529;-81
2022/07/10 15:03:13;;;;;;;;;;;;;;;17.76;79.53;98719.63;4583602;31;20371;-84
2022/07/10 15:05:42;;;;;;;;;;;;;;;18.08;80.42;98704.38;4583219;31;20526;-82
2022/07/10 15:12:38;;;;;;;;;;;;;;;18.45;79.56;98656.09;4583273;31;20340;-82
2022/07/10 15:15:09;;;;;;;;;;;;;;;18.63;79.11;98644.25;4583237;31;20403;-84
2022/07/10 15:17:44;;;;;;;;;;;;;;;18.69;78.79;98652.34;4597169;31;19925;-82
2022/07/10 15:20:19;;;;;;;;;;;;;;;18.71;79.17;98652.84;4608033;31;20445;-82
2022/07/10 15:22:47;;;;;;;;;;;;;;;18.76;79.80;98644.56;4634292;31;20397;-86
2022/07/10 15:25:15;;;;;;;;;;;;;;;18.77;80.00;98641.53;4609843;31;20023;-84
2022/07/10 15:36:48;;;;;;;;;;;;;;;18.30;78.49;98662.69;4679828;30;19989;-86
2022/07/10 15:39:41;;;;;;;;;;;;;;;18.32;80.05;98643.28;4675601;30;19930;-90
2022/07/10 15:42:14;;;;;;;;;;;;;;;18.37;79.99;98624.03;4654504;30;20499;-89
2022/07/10 15:44:43;;;;;;;;;;;;;;;18.40;80.19;98617.97;4654225;30;19923;-88
2022/07/10 15:47:17;;;;;;;;;;;;;;;18.46;79.65;98619.50;4654005;30;20372;-87
2022/07/10 15:54:13;;;;;;;;;;;;;;;18.89;78.25;98627.31;4673437;30;19931;-90
2022/07/10 15:57:05;;;;;;;;;;;;;;;18.81;78.85;98607.00;4674460;30;20423;-90
2022/07/10 16:03:53;;;;;;;;;;;;;;;18.56;79.02;98613.81;4614440;31;19909;-93
2022/07/10 16:06:49;;;;;;;;;;;;;;;18.55;78.86;98631.31;715807;28;20194;-94
2022/07/10 16:09:19;;;;;;;;;;;;;;;18.60;78.30;98631.19;4711915;30;19950;-89
2022/07/10 16:11:51;;;;;;;;;;;;;;;18.75;78.57;98656.59;4709739;30;20260;-90
2022/07/10 16:14:21;;;;;;;;;;;;;;;18.60;79.04;98674.13;4678117;30;20352;-91
2022/07/10 16:16:55;;;;;;;;;;;;;;;18.45;80.11;98683.44;4690869;30;20364;-91
2022/07/10 16:19:28;;;;;;;;;;;;;;;18.35;80.57;98665.31;4678921;30;20372;-94
2022/07/10 16:22:05;;;;;;;;;;;;;;;18.36;80.14;98677.88;4694289;30;20372;-91
2022/07/10 16:28:03;;;;;;;;;;;;;;;18.69;78.37;98685.97;4695733;30;19929;-93
2022/07/10 16:30:37;;;;;;;;;;;;;;;19.08;77.51;98744.75;4680610;30;20352;-91
2022/07/10 16:33:12;;;;;;;;;;;;;;;19.17;75.67;98826.91;4678032;30;19927;-92
2022/07/10 16:35:43;;;;;;;;;;;;;;;18.74;76.89;98781.50;4692191;30;20343;-90
2022/07/10 16:42:47;;;;;;;;;;;;;;;18.07;82.20;98718.31;4709044;30;20430;-92
2022/07/10 16:45:21;;;;;;;;;;;;;;;18.01;83.00;98720.31;4691765;30;19923;-93
2022/07/10 16:52:21;;;;;;;;;;;;;;;18.17;83.72;98732.56;4705906;30;19926;-92
2022/07/10 16:54:50;;;;;;;;;;;;;;;18.18;83.33;98719.75;4677358;30;20490;-93
2022/07/10 16:57:21;;;;;;;;;;;;;;;18.20;82.85;98709.31;4690999;30;20329;-89
2022/07/10 16:59:59;;;;;;;;;;;;;;;18.22;82.67;98703.56;4697576;30;19973;-92
2022/07/10 17:02:59;;;;;;;;;;;;;;;18.28;82.18;98705.91;4694736;30;19933;-89
2022/07/10 17:05:30;;;;;;;;;;;;;;;18.37;81.73;98675.94;4674309;30;20575;-86
2022/07/10 17:08:09;;;;;;;;;;;;;;;18.46;81.37;98665.94;4672317;30;20410;-91
2022/07/10 17:10:40;;;;;;;;;;;;;;;18.42;81.72;98648.53;4675739;30;19981;-89
2022/07/10 17:23:44;;;;;;;;;;;;;;;18.41;81.27;98674.25;4666935;30;20443;-86
2022/07/10 17:26:13;;;;;;;;;;;;;;;18.40;81.53;98703.47;4680797;30;20388;-82
2022/07/10 17:28:41;;;;;;;;;;;;;;;18.38;81.09;98716.63;4667510;30;20383;-86
2022/07/10 17:31:13;;;;;;;;;;;;;;;18.42;80.74;98712.16;4667222;30;20296;-89
2022/07/10 17:34:11;;;;;;;;;;;;;;;18.53;80.16;98720.97;4669235;30;20360;-91
2022/07/10 17:36:58;;;;;;;;;;;;;;;18.59;80.32;98718.97;4667765;30;20475;-91
2022/07/10 17:39:27;;;;;;;;;;;;;;;18.59;80.32;98708.84;4654008;30;20386;-90
2022/07/10 17:41:58;;;;;;;;;;;;;;;18.51;80.48;98697.78;4652579;30;19924;-91
2022/07/10 17:44:32;;;;;;;;;;;;;;;18.47;81.13;98708.53;4655238;30;20384;-92
2022/07/10 17:47:02;;;;;;;;;;;;;;;18.39;82.04;98703.78;4667735;30;19924;-91
2022/07/10 17:49:33;;;;;;;;;;;;;;;18.30;83.49;98706.38;4667194;30;20439;-88
2022/07/10 17:52:04;;;;;;;;;;;;;;;18.30;84.11;98708.31;4683073;30;19959;-93
2022/07/10 17:54:35;;;;;;;;;;;;;;;18.27;84.26;98703.47;4670193;30;20304;-90
2022/07/10 17:57:07;;;;;;;;;;;;;;;18.21;84.73;98704.69;4655607;30;20440;-91
2022/07/10 17:59:46;;;;;;;;;;;;;;;18.15;85.10;98715.72;4656572;30;19930;-90
2022/07/10 18:02:26;;;;;;;;;;;;;;;18.10;86.07;98712.22;4660390;30;20381;-91
2022/07/10 18:05:03;;;;;;;;;;;;;;;18.07;85.76;98719.09;4671054;30;20297;-90
2022/07/10 18:07:43;;;;;;;;;;;;;;;18.04;85.82;98714.25;4673279;30;20364;-88
2022/07/10 18:10:25;;;;;;;;;;;;;;;18.07;85.87;98727.31;4671237;30;20365;-83
2022/07/10 18:12:56;;;;;;;;;;;;;;;18.06;86.14;98725.69;4649523;30;20365;-84